sensor_id;sensor_type;location;lat;lon;timestamp;P1;durP1;ratioP1;P2;durP2;ratioP2
18834;SDS011;9546;59.262;18.036;2022-11-14T00:01:28;19.48;;;6.15;;
18834;SDS011;9546;59.262;18.036;2022-11-14T00:03:54;15.57;;;6.32;;
18834;SDS011;9546;59.262;18.036;2022-11-14T00:06:21;16.65;;;5.85;;
18834;SDS011;9546;59.262;18.036;2022-11-14T00:08:48;18.15;;;5.97;;
18834;SDS011;9546;59.262;18.036;2022-11-14T00:11:14;17.23;;;6.78;;
18834;SDS011;9546;59.262;18.036;2022-11-14T00:13:41;18.02;;;7.03;;
18834;SDS011;9546;59.262;18.036;2022-11-14T00:16:07;18.88;;;6.28;;
18834;SDS011;9546;59.262;18.036;2022-11-14T00:35:51;15.02;;;6.88;;
18834;SDS011;9546;59.262;18.036;2022-11-14T00:38:17;19.15;;;7.32;;
18834;SDS011;9546;59.262;18.036;2022-11-14T00:40:44;18.45;;;7.50;;
18834;SDS011;9546;59.262;18.036;2022-11-14T00:43:10;14.07;;;6.68;;
18834;SDS011;9546;59.262;18.036;2022-11-14T00:45:37;16.60;;;7.38;;
18834;SDS011;9546;59.262;18.036;2022-11-14T00:48:04;17.48;;;7.20;;
18834;SDS011;9546;59.262;18.036;2022-11-14T00:50:31;16.50;;;6.60;;
18834;SDS011;9546;59.262;18.036;2022-11-14T00:52:58;13.75;;;6.68;;
18834;SDS011;9546;59.262;18.036;2022-11-14T00:55:25;19.63;;;7.40;;
18834;SDS011;9546;59.262;18.036;2022-11-14T00:57:51;17.83;;;7.88;;
18834;SDS011;9546;59.262;18.036;2022-11-14T01:00:18;14.30;;;6.20;;
18834;SDS011;9546;59.262;18.036;2022-11-14T01:02:45;15.20;;;6.60;;
18834;SDS011;9546;59.262;18.036;2022-11-14T01:05:11;17.67;;;7.50;;
18834;SDS011;9546;59.262;18.036;2022-11-14T01:07:38;17.13;;;6.72;;
18834;SDS011;9546;59.262;18.036;2022-11-14T01:10:07;14.20;;;6.72;;
18834;SDS011;9546;59.262;18.036;2022-11-14T01:12:34;14.30;;;6.32;;
18834;SDS011;9546;59.262;18.036;2022-11-14T01:15:00;15.40;;;7.25;;
18834;SDS011;9546;59.262;18.036;2022-11-14T01:17:27;13.70;;;6.85;;
18834;SDS011;9546;59.262;18.036;2022-11-14T01:19:53;9.85;;;6.32;;
18834;SDS011;9546;59.262;18.036;2022-11-14T01:22:21;15.90;;;6.85;;
18834;SDS011;9546;59.262;18.036;2022-11-14T01:24:47;25.27;;;9.32;;
18834;SDS011;9546;59.262;18.036;2022-11-14T01:27:15;15.57;;;8.02;;
18834;SDS011;9546;59.262;18.036;2022-11-14T01:29:42;14.98;;;7.32;;
18834;SDS011;9546;59.262;18.036;2022-11-14T01:32:08;12.35;;;6.25;;
18834;SDS011;9546;59.262;18.036;2022-11-14T01:34:35;10.73;;;6.70;;
18834;SDS011;9546;59.262;18.036;2022-11-14T01:37:02;12.10;;;6.35;;
18834;SDS011;9546;59.262;18.036;2022-11-14T01:39:28;14.38;;;7.05;;
18834;SDS011;9546;59.262;18.036;2022-11-14T01:41:55;16.48;;;6.85;;
18834;SDS011;9546;59.262;18.036;2022-11-14T01:44:42;12.05;;;6.22;;
18834;SDS011;9546;59.262;18.036;2022-11-14T01:47:10;13.95;;;7.20;;
18834;SDS011;9546;59.262;18.036;2022-11-14T01:49:38;17.77;;;7.28;;
18834;SDS011;9546;59.262;18.036;2022-11-14T01:52:05;13.27;;;6.80;;
18834;SDS011;9546;59.262;18.036;2022-11-14T01:54:33;12.38;;;6.80;;
18834;SDS011;9546;59.262;18.036;2022-11-14T01:57:02;11.63;;;6.63;;
18834;SDS011;9546;59.262;18.036;2022-11-14T01:59:29;14.90;;;7.00;;
18834;SDS011;9546;59.262;18.036;2022-11-14T02:02:00;16.88;;;6.55;;
18834;SDS011;9546;59.262;18.036;2022-11-14T02:04:28;10.77;;;6.28;;
18834;SDS011;9546;59.262;18.036;2022-11-14T02:06:58;12.10;;;6.10;;
18834;SDS011;9546;59.262;18.036;2022-11-14T02:09:25;9.95;;;5.20;;
18834;SDS011;9546;59.262;18.036;2022-11-14T02:11:52;12.43;;;5.20;;
18834;SDS011;9546;59.262;18.036;2022-11-14T02:14:19;9.95;;;5.57;;
18834;SDS011;9546;59.262;18.036;2022-11-14T02:16:45;14.43;;;6.32;;
18834;SDS011;9546;59.262;18.036;2022-11-14T02:36:18;9.98;;;5.80;;
18834;SDS011;9546;59.262;18.036;2022-11-14T02:38:45;15.43;;;6.30;;
18834;SDS011;9546;59.262;18.036;2022-11-14T02:41:12;15.07;;;7.13;;
18834;SDS011;9546;59.262;18.036;2022-11-14T02:43:38;19.42;;;8.52;;
18834;SDS011;9546;59.262;18.036;2022-11-14T02:46:05;15.65;;;7.53;;
18834;SDS011;9546;59.262;18.036;2022-11-14T02:48:32;15.98;;;7.00;;
18834;SDS011;9546;59.262;18.036;2022-11-14T02:50:58;18.38;;;6.72;;
18834;SDS011;9546;59.262;18.036;2022-11-14T02:53:27;10.73;;;6.32;;
18834;SDS011;9546;59.262;18.036;2022-11-14T02:55:54;11.65;;;6.22;;
18834;SDS011;9546;59.262;18.036;2022-11-14T02:58:20;14.73;;;5.90;;
18834;SDS011;9546;59.262;18.036;2022-11-14T03:00:47;13.10;;;6.07;;
18834;SDS011;9546;59.262;18.036;2022-11-14T03:03:13;12.98;;;6.75;;
18834;SDS011;9546;59.262;18.036;2022-11-14T03:05:40;15.25;;;6.78;;
18834;SDS011;9546;59.262;18.036;2022-11-14T03:08:07;12.60;;;6.18;;
18834;SDS011;9546;59.262;18.036;2022-11-14T03:10:35;15.40;;;6.13;;
18834;SDS011;9546;59.262;18.036;2022-11-14T03:13:01;12.85;;;5.53;;
18834;SDS011;9546;59.262;18.036;2022-11-14T03:15:28;15.00;;;6.07;;
18834;SDS011;9546;59.262;18.036;2022-11-14T03:17:55;17.80;;;6.03;;
18834;SDS011;9546;59.262;18.036;2022-11-14T03:20:21;10.50;;;5.40;;
18834;SDS011;9546;59.262;18.036;2022-11-14T03:22:48;13.55;;;6.40;;
18834;SDS011;9546;59.262;18.036;2022-11-14T03:25:15;12.38;;;6.75;;
18834;SDS011;9546;59.262;18.036;2022-11-14T03:27:43;13.98;;;6.45;;
18834;SDS011;9546;59.262;18.036;2022-11-14T03:30:10;15.95;;;7.47;;
18834;SDS011;9546;59.262;18.036;2022-11-14T03:32:37;11.45;;;6.25;;
18834;SDS011;9546;59.262;18.036;2022-11-14T03:35:04;11.85;;;5.40;;
18834;SDS011;9546;59.262;18.036;2022-11-14T03:37:30;10.38;;;4.95;;
18834;SDS011;9546;59.262;18.036;2022-11-14T03:39:57;11.15;;;5.47;;
18834;SDS011;9546;59.262;18.036;2022-11-14T03:42:24;10.52;;;5.88;;
18834;SDS011;9546;59.262;18.036;2022-11-14T03:44:52;10.15;;;5.32;;
18834;SDS011;9546;59.262;18.036;2022-11-14T03:47:19;10.75;;;5.05;;
18834;SDS011;9546;59.262;18.036;2022-11-14T03:49:46;12.40;;;4.97;;
18834;SDS011;9546;59.262;18.036;2022-11-14T03:52:12;11.20;;;5.55;;
18834;SDS011;9546;59.262;18.036;2022-11-14T03:54:39;14.38;;;5.60;;
18834;SDS011;9546;59.262;18.036;2022-11-14T03:57:06;9.80;;;4.93;;
18834;SDS011;9546;59.262;18.036;2022-11-14T03:59:33;10.27;;;4.53;;
18834;SDS011;9546;59.262;18.036;2022-11-14T04:02:01;7.47;;;5.15;;
18834;SDS011;9546;59.262;18.036;2022-11-14T04:04:27;7.57;;;3.90;;
18834;SDS011;9546;59.262;18.036;2022-11-14T04:06:54;12.52;;;4.70;;
18834;SDS011;9546;59.262;18.036;2022-11-14T04:09:21;8.13;;;4.32;;
18834;SDS011;9546;59.262;18.036;2022-11-14T04:11:47;10.68;;;4.40;;
18834;SDS011;9546;59.262;18.036;2022-11-14T04:14:14;9.30;;;4.15;;
18834;SDS011;9546;59.262;18.036;2022-11-14T04:35:56;9.02;;;4.38;;
18834;SDS011;9546;59.262;18.036;2022-11-14T04:38:24;11.68;;;5.75;;
18834;SDS011;9546;59.262;18.036;2022-11-14T04:40:51;7.38;;;4.57;;
18834;SDS011;9546;59.262;18.036;2022-11-14T04:43:18;11.60;;;5.32;;
18834;SDS011;9546;59.262;18.036;2022-11-14T04:45:46;9.27;;;4.60;;
18834;SDS011;9546;59.262;18.036;2022-11-14T04:48:13;9.40;;;4.95;;
18834;SDS011;9546;59.262;18.036;2022-11-14T04:50:41;8.55;;;4.93;;
18834;SDS011;9546;59.262;18.036;2022-11-14T04:53:09;12.05;;;5.03;;
18834;SDS011;9546;59.262;18.036;2022-11-14T04:55:37;11.88;;;5.47;;
18834;SDS011;9546;59.262;18.036;2022-11-14T04:58:03;13.10;;;6.55;;
18834;SDS011;9546;59.262;18.036;2022-11-14T05:00:30;10.30;;;6.45;;
18834;SDS011;9546;59.262;18.036;2022-11-14T05:02:57;10.60;;;6.63;;
18834;SDS011;9546;59.262;18.036;2022-11-14T05:05:24;13.18;;;6.85;;
18834;SDS011;9546;59.262;18.036;2022-11-14T05:07:50;19.48;;;7.53;;
18834;SDS011;9546;59.262;18.036;2022-11-14T05:10:18;14.18;;;7.80;;
18834;SDS011;9546;59.262;18.036;2022-11-14T05:12:45;16.27;;;7.60;;
18834;SDS011;9546;59.262;18.036;2022-11-14T05:15:12;16.35;;;7.88;;
18834;SDS011;9546;59.262;18.036;2022-11-14T05:17:38;14.55;;;7.70;;
18834;SDS011;9546;59.262;18.036;2022-11-14T05:20:05;20.45;;;7.47;;
18834;SDS011;9546;59.262;18.036;2022-11-14T05:22:32;17.08;;;7.07;;
18834;SDS011;9546;59.262;18.036;2022-11-14T05:24:59;12.68;;;6.25;;
18834;SDS011;9546;59.262;18.036;2022-11-14T05:27:27;11.07;;;6.30;;
18834;SDS011;9546;59.262;18.036;2022-11-14T05:29:53;15.32;;;7.05;;
18834;SDS011;9546;59.262;18.036;2022-11-14T05:32:20;13.43;;;6.40;;
18834;SDS011;9546;59.262;18.036;2022-11-14T05:34:47;13.10;;;6.40;;
18834;SDS011;9546;59.262;18.036;2022-11-14T05:37:14;12.73;;;6.35;;
18834;SDS011;9546;59.262;18.036;2022-11-14T05:39:41;11.27;;;4.85;;
18834;SDS011;9546;59.262;18.036;2022-11-14T05:42:08;13.10;;;5.88;;
18834;SDS011;9546;59.262;18.036;2022-11-14T05:44:37;12.05;;;5.18;;
18834;SDS011;9546;59.262;18.036;2022-11-14T05:47:04;5.18;;;3.58;;
18834;SDS011;9546;59.262;18.036;2022-11-14T05:49:30;9.52;;;4.60;;
18834;SDS011;9546;59.262;18.036;2022-11-14T05:51:57;9.45;;;5.35;;
18834;SDS011;9546;59.262;18.036;2022-11-14T05:54:24;10.13;;;4.10;;
18834;SDS011;9546;59.262;18.036;2022-11-14T05:56:51;8.68;;;4.47;;
18834;SDS011;9546;59.262;18.036;2022-11-14T05:59:17;6.65;;;4.38;;
18834;SDS011;9546;59.262;18.036;2022-11-14T06:20:58;6.38;;;3.20;;
18834;SDS011;9546;59.262;18.036;2022-11-14T06:23:25;6.80;;;2.28;;
18834;SDS011;9546;59.262;18.036;2022-11-14T06:25:56;3.17;;;2.42;;
18834;SDS011;9546;59.262;18.036;2022-11-14T06:28:23;5.38;;;2.67;;
18834;SDS011;9546;59.262;18.036;2022-11-14T06:30:49;3.63;;;2.65;;
18834;SDS011;9546;59.262;18.036;2022-11-14T06:33:16;4.15;;;2.50;;
18834;SDS011;9546;59.262;18.036;2022-11-14T06:35:43;5.97;;;2.65;;
18834;SDS011;9546;59.262;18.036;2022-11-14T06:38:11;6.20;;;2.65;;
18834;SDS011;9546;59.262;18.036;2022-11-14T06:40:37;3.15;;;2.00;;
18834;SDS011;9546;59.262;18.036;2022-11-14T06:43:04;5.15;;;3.20;;
18834;SDS011;9546;59.262;18.036;2022-11-14T06:45:31;3.65;;;2.42;;
18834;SDS011;9546;59.262;18.036;2022-11-14T06:47:58;3.65;;;2.55;;
18834;SDS011;9546;59.262;18.036;2022-11-14T06:50:25;4.25;;;2.75;;
18834;SDS011;9546;59.262;18.036;2022-11-14T06:52:51;4.55;;;2.92;;
18834;SDS011;9546;59.262;18.036;2022-11-14T06:55:20;4.45;;;2.58;;
18834;SDS011;9546;59.262;18.036;2022-11-14T06:57:51;3.10;;;2.33;;
18834;SDS011;9546;59.262;18.036;2022-11-14T07:00:18;2.85;;;2.08;;
18834;SDS011;9546;59.262;18.036;2022-11-14T07:02:45;3.97;;;2.05;;
18834;SDS011;9546;59.262;18.036;2022-11-14T07:05:12;2.78;;;2.13;;
18834;SDS011;9546;59.262;18.036;2022-11-14T07:07:38;4.53;;;2.28;;
18834;SDS011;9546;59.262;18.036;2022-11-14T07:10:05;3.78;;;2.60;;
18834;SDS011;9546;59.262;18.036;2022-11-14T07:12:33;3.45;;;2.20;;
18834;SDS011;9546;59.262;18.036;2022-11-14T07:15:00;3.03;;;2.38;;
18834;SDS011;9546;59.262;18.036;2022-11-14T07:17:26;3.63;;;2.40;;
18834;SDS011;9546;59.262;18.036;2022-11-14T07:19:53;2.35;;;1.80;;
18834;SDS011;9546;59.262;18.036;2022-11-14T07:22:20;3.75;;;2.33;;
18834;SDS011;9546;59.262;18.036;2022-11-14T07:24:46;3.90;;;3.03;;
18834;SDS011;9546;59.262;18.036;2022-11-14T07:27:13;3.42;;;2.33;;
18834;SDS011;9546;59.262;18.036;2022-11-14T07:29:41;2.20;;;2.00;;
18834;SDS011;9546;59.262;18.036;2022-11-14T07:32:07;5.18;;;2.03;;
18834;SDS011;9546;59.262;18.036;2022-11-14T07:34:34;3.58;;;2.00;;
18834;SDS011;9546;59.262;18.036;2022-11-14T07:37:01;3.85;;;1.98;;
18834;SDS011;9546;59.262;18.036;2022-11-14T07:39:27;3.47;;;2.00;;
18834;SDS011;9546;59.262;18.036;2022-11-14T07:41:54;3.35;;;1.77;;
18834;SDS011;9546;59.262;18.036;2022-11-14T07:44:21;3.22;;;2.22;;
18834;SDS011;9546;59.262;18.036;2022-11-14T07:46:49;2.55;;;2.00;;
18834;SDS011;9546;59.262;18.036;2022-11-14T07:49:16;4.68;;;2.58;;
18834;SDS011;9546;59.262;18.036;2022-11-14T07:51:43;3.97;;;2.22;;
18834;SDS011;9546;59.262;18.036;2022-11-14T07:54:09;3.63;;;2.35;;
18834;SDS011;9546;59.262;18.036;2022-11-14T07:56:37;3.50;;;2.13;;
18834;SDS011;9546;59.262;18.036;2022-11-14T07:59:03;3.22;;;2.50;;
18834;SDS011;9546;59.262;18.036;2022-11-14T08:01:30;3.08;;;2.40;;
18834;SDS011;9546;59.262;18.036;2022-11-14T08:03:58;3.13;;;2.58;;
18834;SDS011;9546;59.262;18.036;2022-11-14T08:06:25;5.68;;;3.35;;
18834;SDS011;9546;59.262;18.036;2022-11-14T08:08:52;3.47;;;2.45;;
18834;SDS011;9546;59.262;18.036;2022-11-14T08:11:18;2.75;;;2.38;;
18834;SDS011;9546;59.262;18.036;2022-11-14T08:14:06;2.65;;;2.28;;
18834;SDS011;9546;59.262;18.036;2022-11-14T08:35:24;1.33;;;1.10;;
18834;SDS011;9546;59.262;18.036;2022-11-14T08:37:51;1.60;;;1.02;;
18834;SDS011;9546;59.262;18.036;2022-11-14T08:40:17;0.82;;;0.73;;
18834;SDS011;9546;59.262;18.036;2022-11-14T08:42:44;1.52;;;0.90;;
18834;SDS011;9546;59.262;18.036;2022-11-14T08:45:11;0.75;;;0.60;;
18834;SDS011;9546;59.262;18.036;2022-11-14T08:47:37;2.28;;;0.80;;
18834;SDS011;9546;59.262;18.036;2022-11-14T08:50:04;1.50;;;1.30;;
18834;SDS011;9546;59.262;18.036;2022-11-14T08:52:32;1.00;;;0.50;;
18834;SDS011;9546;59.262;18.036;2022-11-14T08:54:59;0.88;;;0.77;;
18834;SDS011;9546;59.262;18.036;2022-11-14T08:57:25;1.50;;;0.60;;
18834;SDS011;9546;59.262;18.036;2022-11-14T08:59:53;0.88;;;0.60;;
18834;SDS011;9546;59.262;18.036;2022-11-14T09:02:20;1.45;;;0.75;;
18834;SDS011;9546;59.262;18.036;2022-11-14T09:04:46;0.80;;;0.80;;
18834;SDS011;9546;59.262;18.036;2022-11-14T09:07:13;1.33;;;0.60;;
18834;SDS011;9546;59.262;18.036;2022-11-14T09:09:41;0.98;;;0.80;;
18834;SDS011;9546;59.262;18.036;2022-11-14T09:12:08;1.90;;;1.00;;
18834;SDS011;9546;59.262;18.036;2022-11-14T09:14:34;0.80;;;0.80;;
18834;SDS011;9546;59.262;18.036;2022-11-14T09:17:01;0.90;;;0.80;;
18834;SDS011;9546;59.262;18.036;2022-11-14T09:19:28;2.35;;;0.88;;
18834;SDS011;9546;59.262;18.036;2022-11-14T09:21:55;0.77;;;0.50;;
18834;SDS011;9546;59.262;18.036;2022-11-14T09:24:21;0.60;;;0.40;;
18834;SDS011;9546;59.262;18.036;2022-11-14T09:26:51;1.10;;;1.00;;
18834;SDS011;9546;59.262;18.036;2022-11-14T09:29:18;0.55;;;0.43;;
18834;SDS011;9546;59.262;18.036;2022-11-14T09:31:45;0.60;;;0.50;;
18834;SDS011;9546;59.262;18.036;2022-11-14T09:34:11;0.85;;;0.60;;
18834;SDS011;9546;59.262;18.036;2022-11-14T09:36:39;0.65;;;0.60;;
18834;SDS011;9546;59.262;18.036;2022-11-14T09:39:06;0.73;;;0.50;;
18834;SDS011;9546;59.262;18.036;2022-11-14T09:41:36;0.60;;;0.50;;
18834;SDS011;9546;59.262;18.036;2022-11-14T09:44:19;0.75;;;0.60;;
18834;SDS011;9546;59.262;18.036;2022-11-14T09:46:47;5.82;;;0.90;;
18834;SDS011;9546;59.262;18.036;2022-11-14T09:49:19;0.98;;;0.60;;
18834;SDS011;9546;59.262;18.036;2022-11-14T09:51:52;1.08;;;0.50;;
18834;SDS011;9546;59.262;18.036;2022-11-14T09:54:20;2.17;;;0.73;;
18834;SDS011;9546;59.262;18.036;2022-11-14T09:56:49;0.95;;;0.50;;
18834;SDS011;9546;59.262;18.036;2022-11-14T09:59:15;1.48;;;0.70;;
18834;SDS011;9546;59.262;18.036;2022-11-14T10:01:45;0.80;;;0.70;;
18834;SDS011;9546;59.262;18.036;2022-11-14T10:04:16;1.48;;;0.77;;
18834;SDS011;9546;59.262;18.036;2022-11-14T10:06:50;2.55;;;0.98;;
18834;SDS011;9546;59.262;18.036;2022-11-14T10:09:24;1.00;;;0.90;;
18834;SDS011;9546;59.262;18.036;2022-11-14T10:11:54;1.77;;;0.93;;
18834;SDS011;9546;59.262;18.036;2022-11-14T10:35:39;8.55;;;3.78;;
18834;SDS011;9546;59.262;18.036;2022-11-14T10:38:09;2.00;;;1.35;;
18834;SDS011;9546;59.262;18.036;2022-11-14T10:40:38;2.25;;;1.60;;
18834;SDS011;9546;59.262;18.036;2022-11-14T10:43:06;2.35;;;1.73;;
18834;SDS011;9546;59.262;18.036;2022-11-14T10:45:39;3.83;;;1.70;;
18834;SDS011;9546;59.262;18.036;2022-11-14T10:48:08;2.53;;;1.63;;
18834;SDS011;9546;59.262;18.036;2022-11-14T10:50:38;2.35;;;1.92;;
18834;SDS011;9546;59.262;18.036;2022-11-14T10:55:53;2.20;;;2.00;;
18834;SDS011;9546;59.262;18.036;2022-11-14T10:58:20;2.22;;;1.80;;
18834;SDS011;9546;59.262;18.036;2022-11-14T11:00:47;2.58;;;1.98;;
18834;SDS011;9546;59.262;18.036;2022-11-14T11:03:14;2.83;;;2.00;;
18834;SDS011;9546;59.262;18.036;2022-11-14T11:05:45;2.70;;;2.40;;
18834;SDS011;9546;59.262;18.036;2022-11-14T11:08:12;3.47;;;2.38;;
18834;SDS011;9546;59.262;18.036;2022-11-14T11:10:58;2.53;;;1.88;;
18834;SDS011;9546;59.262;18.036;2022-11-14T11:13:47;2.92;;;1.98;;
18834;SDS011;9546;59.262;18.036;2022-11-14T11:16:13;4.18;;;2.35;;
18834;SDS011;9546;59.262;18.036;2022-11-14T11:18:45;3.13;;;2.40;;
18834;SDS011;9546;59.262;18.036;2022-11-14T11:21:12;2.67;;;2.47;;
18834;SDS011;9546;59.262;18.036;2022-11-14T11:23:46;2.67;;;2.38;;
18834;SDS011;9546;59.262;18.036;2022-11-14T11:26:22;5.43;;;3.05;;
18834;SDS011;9546;59.262;18.036;2022-11-14T11:29:02;3.80;;;2.67;;
18834;SDS011;9546;59.262;18.036;2022-11-14T11:31:43;4.45;;;2.40;;
18834;SDS011;9546;59.262;18.036;2022-11-14T11:34:14;3.42;;;2.95;;
18834;SDS011;9546;59.262;18.036;2022-11-14T11:36:42;2.97;;;2.35;;
18834;SDS011;9546;59.262;18.036;2022-11-14T11:39:13;4.38;;;2.67;;
18834;SDS011;9546;59.262;18.036;2022-11-14T11:41:46;4.03;;;2.22;;
18834;SDS011;9546;59.262;18.036;2022-11-14T11:44:15;5.93;;;2.28;;
18834;SDS011;9546;59.262;18.036;2022-11-14T11:46:44;3.92;;;2.33;;
18834;SDS011;9546;59.262;18.036;2022-11-14T11:49:12;4.57;;;2.40;;
18834;SDS011;9546;59.262;18.036;2022-11-14T11:51:40;2.50;;;2.30;;
18834;SDS011;9546;59.262;18.036;2022-11-14T11:54:09;4.60;;;2.17;;
18834;SDS011;9546;59.262;18.036;2022-11-14T11:56:39;4.35;;;2.35;;
18834;SDS011;9546;59.262;18.036;2022-11-14T11:59:14;4.18;;;2.70;;
18834;SDS011;9546;59.262;18.036;2022-11-14T12:01:43;2.38;;;1.98;;
18834;SDS011;9546;59.262;18.036;2022-11-14T12:04:09;4.07;;;2.90;;
18834;SDS011;9546;59.262;18.036;2022-11-14T12:06:38;3.95;;;2.40;;
18834;SDS011;9546;59.262;18.036;2022-11-14T12:09:09;5.13;;;2.40;;
18834;SDS011;9546;59.262;18.036;2022-11-14T12:11:38;1.85;;;1.73;;
18834;SDS011;9546;59.262;18.036;2022-11-14T12:35:46;3.35;;;2.25;;
18834;SDS011;9546;59.262;18.036;2022-11-14T12:38:15;5.07;;;3.25;;
18834;SDS011;9546;59.262;18.036;2022-11-14T12:40:47;6.05;;;2.80;;
18834;SDS011;9546;59.262;18.036;2022-11-14T12:43:29;4.38;;;2.42;;
18834;SDS011;9546;59.262;18.036;2022-11-14T12:45:57;4.20;;;2.40;;
18834;SDS011;9546;59.262;18.036;2022-11-14T12:48:31;4.65;;;2.60;;
18834;SDS011;9546;59.262;18.036;2022-11-14T12:51:00;3.85;;;2.97;;
18834;SDS011;9546;59.262;18.036;2022-11-14T12:53:37;5.32;;;2.92;;
18834;SDS011;9546;59.262;18.036;2022-11-14T12:56:11;4.05;;;3.05;;
18834;SDS011;9546;59.262;18.036;2022-11-14T13:01:31;10.95;;;2.90;;
18834;SDS011;9546;59.262;18.036;2022-11-14T13:04:07;4.28;;;2.78;;
18834;SDS011;9546;59.262;18.036;2022-11-14T13:06:43;3.60;;;2.15;;
18834;SDS011;9546;59.262;18.036;2022-11-14T13:09:23;3.85;;;2.30;;
18834;SDS011;9546;59.262;18.036;2022-11-14T13:11:53;5.72;;;2.80;;
18834;SDS011;9546;59.262;18.036;2022-11-14T13:17:35;3.35;;;2.70;;
18834;SDS011;9546;59.262;18.036;2022-11-14T13:20:27;2.30;;;2.10;;
18834;SDS011;9546;59.262;18.036;2022-11-14T13:28:47;6.93;;;3.10;;
18834;SDS011;9546;59.262;18.036;2022-11-14T13:31:18;4.70;;;2.33;;
18834;SDS011;9546;59.262;18.036;2022-11-14T13:33:45;3.88;;;2.80;;
18834;SDS011;9546;59.262;18.036;2022-11-14T13:36:14;4.30;;;2.67;;
18834;SDS011;9546;59.262;18.036;2022-11-14T13:44:35;5.70;;;2.83;;
18834;SDS011;9546;59.262;18.036;2022-11-14T13:47:15;5.53;;;2.78;;
18834;SDS011;9546;59.262;18.036;2022-11-14T13:49:58;5.38;;;2.97;;
18834;SDS011;9546;59.262;18.036;2022-11-14T13:52:28;5.72;;;3.20;;
18834;SDS011;9546;59.262;18.036;2022-11-14T13:54:56;6.03;;;3.28;;
18834;SDS011;9546;59.262;18.036;2022-11-14T13:57:26;7.22;;;3.10;;
18834;SDS011;9546;59.262;18.036;2022-11-14T13:59:59;4.75;;;3.53;;
18834;SDS011;9546;59.262;18.036;2022-11-14T14:02:38;9.13;;;3.42;;
18834;SDS011;9546;59.262;18.036;2022-11-14T14:05:11;6.35;;;3.50;;
18834;SDS011;9546;59.262;18.036;2022-11-14T14:07:46;3.88;;;3.38;;
18834;SDS011;9546;59.262;18.036;2022-11-14T14:10:20;4.53;;;3.03;;
18834;SDS011;9546;59.262;18.036;2022-11-14T14:12:54;6.53;;;3.00;;
18834;SDS011;9546;59.262;18.036;2022-11-14T14:35:51;5.35;;;3.30;;
18834;SDS011;9546;59.262;18.036;2022-11-14T14:38:22;7.35;;;2.90;;
18834;SDS011;9546;59.262;18.036;2022-11-14T14:40:50;6.25;;;2.90;;
18834;SDS011;9546;59.262;18.036;2022-11-14T14:43:23;7.28;;;3.58;;
18834;SDS011;9546;59.262;18.036;2022-11-14T14:45:50;4.57;;;2.88;;
18834;SDS011;9546;59.262;18.036;2022-11-14T14:48:20;7.00;;;3.17;;
18834;SDS011;9546;59.262;18.036;2022-11-14T14:50:48;6.90;;;3.60;;
18834;SDS011;9546;59.262;18.036;2022-11-14T14:53:19;5.75;;;3.33;;
18834;SDS011;9546;59.262;18.036;2022-11-14T14:55:50;7.28;;;3.13;;
18834;SDS011;9546;59.262;18.036;2022-11-14T14:58:22;6.78;;;3.10;;
18834;SDS011;9546;59.262;18.036;2022-11-14T15:00:50;6.72;;;3.40;;
18834;SDS011;9546;59.262;18.036;2022-11-14T15:03:18;7.63;;;3.45;;
18834;SDS011;9546;59.262;18.036;2022-11-14T15:05:45;6.60;;;2.83;;
18834;SDS011;9546;59.262;18.036;2022-11-14T15:08:12;7.30;;;3.88;;
18834;SDS011;9546;59.262;18.036;2022-11-14T15:10:41;5.82;;;3.40;;
18834;SDS011;9546;59.262;18.036;2022-11-14T15:13:09;6.35;;;3.35;;
18834;SDS011;9546;59.262;18.036;2022-11-14T15:15:36;6.28;;;3.17;;
18834;SDS011;9546;59.262;18.036;2022-11-14T15:18:04;12.63;;;3.47;;
18834;SDS011;9546;59.262;18.036;2022-11-14T15:20:32;5.45;;;3.05;;
18834;SDS011;9546;59.262;18.036;2022-11-14T15:23:03;5.38;;;3.22;;
18834;SDS011;9546;59.262;18.036;2022-11-14T15:25:30;5.38;;;3.33;;
18834;SDS011;9546;59.262;18.036;2022-11-14T15:27:59;5.85;;;3.42;;
18834;SDS011;9546;59.262;18.036;2022-11-14T15:30:27;6.40;;;3.90;;
18834;SDS011;9546;59.262;18.036;2022-11-14T15:32:56;6.63;;;3.28;;
18834;SDS011;9546;59.262;18.036;2022-11-14T15:35:25;5.22;;;2.97;;
18834;SDS011;9546;59.262;18.036;2022-11-14T15:37:58;7.28;;;3.50;;
18834;SDS011;9546;59.262;18.036;2022-11-14T15:40:25;11.98;;;3.85;;
18834;SDS011;9546;59.262;18.036;2022-11-14T15:42:51;6.18;;;3.65;;
18834;SDS011;9546;59.262;18.036;2022-11-14T15:45:21;6.32;;;3.38;;
18834;SDS011;9546;59.262;18.036;2022-11-14T15:47:48;6.43;;;3.40;;
18834;SDS011;9546;59.262;18.036;2022-11-14T15:50:24;7.45;;;3.78;;
18834;SDS011;9546;59.262;18.036;2022-11-14T15:52:52;8.82;;;3.58;;
18834;SDS011;9546;59.262;18.036;2022-11-14T15:55:22;6.10;;;3.22;;
18834;SDS011;9546;59.262;18.036;2022-11-14T15:57:48;9.65;;;5.72;;
18834;SDS011;9546;59.262;18.036;2022-11-14T16:00:16;4.05;;;2.88;;
18834;SDS011;9546;59.262;18.036;2022-11-14T16:02:46;6.80;;;3.30;;
18834;SDS011;9546;59.262;18.036;2022-11-14T16:05:13;6.28;;;3.20;;
18834;SDS011;9546;59.262;18.036;2022-11-14T16:07:40;9.35;;;3.45;;
18834;SDS011;9546;59.262;18.036;2022-11-14T16:10:12;5.05;;;3.10;;
18834;SDS011;9546;59.262;18.036;2022-11-14T16:12:39;4.78;;;3.08;;
18834;SDS011;9546;59.262;18.036;2022-11-14T16:35:19;6.13;;;3.25;;
18834;SDS011;9546;59.262;18.036;2022-11-14T16:37:46;6.20;;;3.45;;
18834;SDS011;9546;59.262;18.036;2022-11-14T16:40:15;5.72;;;3.80;;
18834;SDS011;9546;59.262;18.036;2022-11-14T16:42:43;10.18;;;3.80;;
18834;SDS011;9546;59.262;18.036;2022-11-14T16:45:10;7.53;;;3.67;;
18834;SDS011;9546;59.262;18.036;2022-11-14T16:47:37;8.25;;;4.00;;
18834;SDS011;9546;59.262;18.036;2022-11-14T16:50:04;9.40;;;3.90;;
18834;SDS011;9546;59.262;18.036;2022-11-14T16:52:32;6.07;;;3.55;;
18834;SDS011;9546;59.262;18.036;2022-11-14T16:54:59;7.65;;;3.55;;
18834;SDS011;9546;59.262;18.036;2022-11-14T16:57:26;6.53;;;3.75;;
18834;SDS011;9546;59.262;18.036;2022-11-14T16:59:52;5.88;;;3.20;;
18834;SDS011;9546;59.262;18.036;2022-11-14T17:02:21;6.20;;;3.55;;
18834;SDS011;9546;59.262;18.036;2022-11-14T17:04:48;6.00;;;3.13;;
18834;SDS011;9546;59.262;18.036;2022-11-14T17:07:15;4.75;;;3.40;;
18834;SDS011;9546;59.262;18.036;2022-11-14T17:09:43;5.85;;;3.78;;
18834;SDS011;9546;59.262;18.036;2022-11-14T17:12:12;5.75;;;3.38;;
18834;SDS011;9546;59.262;18.036;2022-11-14T17:14:39;4.65;;;3.58;;
18834;SDS011;9546;59.262;18.036;2022-11-14T17:17:05;5.40;;;3.92;;
18834;SDS011;9546;59.262;18.036;2022-11-14T17:19:32;7.28;;;3.88;;
18834;SDS011;9546;59.262;18.036;2022-11-14T17:21:58;4.68;;;3.60;;
18834;SDS011;9546;59.262;18.036;2022-11-14T17:24:25;5.43;;;3.60;;
18834;SDS011;9546;59.262;18.036;2022-11-14T17:26:53;5.95;;;3.63;;
18834;SDS011;9546;59.262;18.036;2022-11-14T17:29:20;6.93;;;4.13;;
18834;SDS011;9546;59.262;18.036;2022-11-14T17:31:47;5.20;;;3.88;;
18834;SDS011;9546;59.262;18.036;2022-11-14T17:34:14;5.85;;;4.18;;
18834;SDS011;9546;59.262;18.036;2022-11-14T17:36:41;5.03;;;3.60;;
18834;SDS011;9546;59.262;18.036;2022-11-14T17:39:08;4.53;;;3.80;;
18834;SDS011;9546;59.262;18.036;2022-11-14T17:41:35;5.50;;;4.15;;
18834;SDS011;9546;59.262;18.036;2022-11-14T17:44:04;5.10;;;4.13;;
18834;SDS011;9546;59.262;18.036;2022-11-14T17:46:31;7.57;;;4.10;;
18834;SDS011;9546;59.262;18.036;2022-11-14T17:48:58;6.22;;;4.13;;
18834;SDS011;9546;59.262;18.036;2022-11-14T17:51:24;8.38;;;4.53;;
18834;SDS011;9546;59.262;18.036;2022-11-14T17:53:51;6.10;;;4.55;;
18834;SDS011;9546;59.262;18.036;2022-11-14T17:56:19;7.80;;;4.40;;
18834;SDS011;9546;59.262;18.036;2022-11-14T17:58:46;6.75;;;4.47;;
18834;SDS011;9546;59.262;18.036;2022-11-14T18:01:16;7.38;;;4.35;;
18834;SDS011;9546;59.262;18.036;2022-11-14T18:03:43;8.77;;;4.72;;
18834;SDS011;9546;59.262;18.036;2022-11-14T18:06:12;6.60;;;4.50;;